Brashear, Texas
Current Conditions -  °F | °C
As of 11:15 AM on Wednesday 26 Nov 2014 (Local Time) from KSLR Reporting Station
Clear Clear  
Wind Chill: 58°   Ceiling: Unl
Heat Index: 58°   Visibility: 10mi
Dew Point: 31°   Wind: 9mph
Humidity: 35%   Direction: 310°NW
Pressure: 30.16"   Gusts: NA
Location:  33.12°N, 95.73°W
Report Text: KSLR 261715Z AUTO 31008KT 10SM CLR 14/M01 A3016 RMK AO2 T01441008
Loading
Personal Weather Stations






























Interactive Weather Map New forecast layout! Learn more

10-Day Weather Forecast

Advertisements
Track Severe Weather on mobile